Gloucestershire Airport


Codes: EGBJ/GLO
Name: Gloucestershire Airport
City: Staverton
Country: United Kingdom
Elevation: 101 ft.
Wikipedia:

Photos at Gloucestershire Airport


   Photos courtesy of SpottingLog. You can add your own sightings and photos by signing up for a free trial today.



G-HANS, 17-Apr-2022
© Stephen Galling

G-ELSE, 31-May-2021
© Stephen Galling

G-ONET, 31-May-2021
© Stephen Galling

G-CDMX, 31-May-2021
© Stephen Galling

G-CDWK, 31-May-2021
© Stephen Galling

G-JGAR, 31-May-2021
© Stephen Galling

G-TXAS, 31-May-2021
© Stephen Galling

G-JHPC, 31-May-2021
© Stephen Galling

G-BICW, 31-May-2021
© Stephen Galling

G-XBOX, 31-May-2021
© Stephen Galling

G-OPSS, 31-May-2021
© Stephen Galling

G-AROA, 31-May-2021
© Stephen Galling


Weather at Gloucestershire Airport


Time (UTC)DescriptionTempratureWindCloud coverageVisibilityPressureHumidity
21-Feb-2024 03:00Light Rain9°C13 mph, S100%10000m1015hPa89%
21-Feb-2024 06:00Moderate Rain9°C20 mph, S100%10000m1011hPa91%
21-Feb-2024 09:00Light Rain10°C25 mph, S100%10000m1004hPa92%
21-Feb-2024 12:00Light Rain11°C25 mph, SW100%10000m1000hPa93%
21-Feb-2024 15:00Light Rain11°C16 mph, SW100%9846m999hPa95%
21-Feb-2024 18:00Overcast Clouds9°C16 mph, SW100%10000m1001hPa86%
21-Feb-2024 21:00Overcast Clouds9°C13 mph, SW100%10000m1000hPa91%
22-Feb-2024 00:00Overcast Clouds10°C13 mph, SW100%10000m997hPa93%
22-Feb-2024 03:00Light Rain10°C18 mph, SW100%10000m993hPa93%
22-Feb-2024 06:00Light Rain10°C16 mph, SW99%10000m987hPa92%
22-Feb-2024 09:00Moderate Rain7°C9 mph, NW100%10000m982hPa96%
22-Feb-2024 12:00Moderate Rain5°C13 mph, NW100%6549m980hPa94%
22-Feb-2024 15:00Light Rain6°C18 mph, NW100%10000m983hPa79%
22-Feb-2024 18:00Light Rain4°C16 mph, W86%10000m987hPa80%
22-Feb-2024 21:00Scattered Clouds3°C13 mph, SW25%10000m988hPa83%
23-Feb-2024 00:00Scattered Clouds3°C13 mph, SW31%10000m987hPa85%
23-Feb-2024 03:00Light Rain5°C20 mph, SW89%10000m985hPa82%
23-Feb-2024 06:00Broken Clouds3°C11 mph, SW77%10000m987hPa90%
23-Feb-2024 09:00Broken Clouds4°C11 mph, SW62%10000m988hPa86%
23-Feb-2024 12:00Light Rain7°C13 mph, SW79%10000m988hPa68%
23-Feb-2024 15:00Light Rain6°C11 mph, SW100%10000m987hPa73%
23-Feb-2024 18:00Light Rain3°C7 mph, SW94%10000m988hPa88%
23-Feb-2024 21:00Overcast Clouds2°C4 mph, SW99%10000m988hPa90%
24-Feb-2024 00:00Broken Clouds1°C7 mph, S64%10000m988hPa91%
24-Feb-2024 03:00Few Clouds0°C4 mph, S12%10000m989hPa91%
24-Feb-2024 06:00Scattered Clouds0°C4 mph, S27%10000m989hPa89%
24-Feb-2024 09:00Broken Clouds3°C2 mph, SE60%10000m991hPa79%
24-Feb-2024 12:00Broken Clouds7°C2 mph, NW53%10000m993hPa66%
24-Feb-2024 15:00Few Clouds8°C4 mph, NW15%10000m994hPa60%
24-Feb-2024 18:00Light Rain4°C4 mph, W13%10000m997hPa84%
24-Feb-2024 21:00Clear Sky1°C4 mph, W8%10000m999hPa90%
25-Feb-2024 00:00Few Clouds1°C4 mph, SW18%10000m999hPa89%
25-Feb-2024 03:00Clear Sky1°C4 mph, S7%10000m999hPa90%
25-Feb-2024 06:00Scattered Clouds1°C4 mph, SE33%10000m998hPa95%
25-Feb-2024 09:00Overcast Clouds4°C4 mph, SE100%10000m997hPa88%
25-Feb-2024 12:00Overcast Clouds7°C11 mph, SE100%10000m995hPa80%
25-Feb-2024 15:00Light Rain7°C13 mph, SE100%10000m992hPa82%
25-Feb-2024 18:00Light Rain5°C16 mph, E100%10000m991hPa91%
25-Feb-2024 21:00Moderate Rain4°C22 mph, E100%2388m989hPa96%
26-Feb-2024 00:00Moderate Rain4°C22 mph, NE100%108m986hPa97%